Time;durP1;ratioP1;P1;durP2;ratioP2;P2;SDS_P1;SDS_P2;PMS_P1;PMS_P2;Temp;Humidity;BMP_temperature;BMP_pressure;BME280_temperature;BME280_humidity;BME280_pressure;Samples;Min_cycle;Max_cycle;Signal;HPM_P1;HPM_P2
2023/10/30 00:00:33;;;;;;;9.60;9.30;;;12.30;99.90;;;;;;5122195;28;20229;-83
2023/10/30 00:03:03;;;;;;;9.43;9.13;;;12.30;99.90;;;;;;5139161;27;20228;-85
2023/10/30 00:05:33;;;;;;;9.80;9.50;;;12.30;99.90;;;;;;5151013;27;20232;-82
2023/10/30 00:08:02;;;;;;;9.43;9.13;;;12.30;99.90;;;;;;5130924;27;20225;-83
2023/10/30 00:10:29;;;;;;;9.47;9.17;;;12.30;99.90;;;;;;5121014;28;20221;-82
2023/10/30 00:13:08;;;;;;;9.57;9.27;;;12.30;99.90;;;;;;5118130;28;20285;-82
2023/10/30 00:15:37;;;;;;;9.50;9.20;;;12.30;99.90;;;;;;5107612;28;20233;-82
2023/10/30 00:18:16;;;;;;;9.60;9.30;;;12.20;99.90;;;;;;5114799;28;20217;-81
2023/10/30 00:20:48;;;;;;;9.50;9.20;;;12.30;99.90;;;;;;5105977;28;20225;-82
2023/10/30 00:23:15;;;;;;;9.50;9.20;;;12.20;99.90;;;;;;5106287;28;20256;-83
2023/10/30 00:25:44;;;;;;;9.57;9.27;;;12.20;99.90;;;;;;5107167;28;20233;-82
2023/10/30 00:28:23;;;;;;;9.43;9.13;;;12.20;99.90;;;;;;5106677;28;20225;-83
2023/10/30 00:30:53;;;;;;;9.40;9.10;;;12.20;99.90;;;;;;5124869;28;20225;-82
2023/10/30 00:33:21;;;;;;;9.40;9.10;;;12.20;99.90;;;;;;5127753;27;20209;-83
2023/10/30 00:35:53;;;;;;;9.60;9.30;;;12.20;99.90;;;;;;5137807;28;20213;-81
2023/10/30 00:38:21;;;;;;;9.50;9.20;;;12.20;99.90;;;;;;5125648;28;20225;-83
2023/10/30 00:40:50;;;;;;;9.50;9.20;;;12.20;99.90;;;;;;5125001;28;20236;-82
2023/10/30 00:43:20;;;;;;;9.47;9.17;;;12.20;99.90;;;;;;5115227;27;20233;-84
2023/10/30 00:45:48;;;;;;;9.30;9.00;;;12.20;99.90;;;;;;5107049;28;20232;-82
2023/10/30 00:48:27;;;;;;;9.53;9.23;;;12.20;99.90;;;;;;5106588;28;20229;-83
2023/10/30 00:53:52;;;;;;;9.60;9.30;;;12.20;99.90;;;;;;5105727;28;20225;-82
2023/10/30 00:59:02;;;;;;;9.40;9.10;;;12.20;99.90;;;;;;5105033;28;20221;-83
2023/10/30 01:01:32;;;;;;;9.37;9.07;;;12.20;99.90;;;;;;5106423;28;20256;-82
2023/10/30 01:04:05;;;;;;;9.50;9.20;;;12.20;99.90;;;;;;5111791;27;20194;-81
2023/10/30 01:09:26;;;;;;;9.50;9.20;;;12.20;99.90;;;;;;5112223;28;20229;-82
2023/10/30 01:11:55;;;;;;;9.73;9.43;;;12.30;99.90;;;;;;5114308;28;20225;-83
2023/10/30 01:14:24;;;;;;;9.30;9.00;;;12.20;99.90;;;;;;5120545;27;20193;-82
2023/10/30 01:16:54;;;;;;;9.40;9.10;;;12.30;99.90;;;;;;5105545;28;20229;-82
2023/10/30 01:19:25;;;;;;;9.67;9.37;;;12.20;99.90;;;;;;5106349;28;20233;-82
2023/10/30 01:27:19;;;;;;;9.50;9.20;;;12.20;99.90;;;;;;5110211;28;20232;-82
2023/10/30 01:29:47;;;;;;;9.43;9.13;;;12.20;99.90;;;;;;5126835;28;20224;-81
2023/10/30 01:32:26;;;;;;;9.47;9.17;;;12.20;99.90;;;;;;5118129;28;20268;-82
2023/10/30 01:35:05;;;;;;;9.17;8.87;;;12.20;99.90;;;;;;5136089;28;20208;-81
2023/10/30 01:37:35;;;;;;;9.40;9.10;;;12.20;99.90;;;;;;5128445;28;20247;-82
2023/10/30 01:40:03;;;;;;;9.17;8.87;;;12.20;99.90;;;;;;5129484;28;20232;-81
2023/10/30 01:42:32;;;;;;;9.23;8.93;;;12.20;99.90;;;;;;5113272;28;20237;-82
2023/10/30 01:45:01;;;;;;;9.20;8.90;;;12.20;99.90;;;;;;5122461;28;20228;-82
2023/10/30 01:47:31;;;;;;;9.40;9.10;;;12.20;99.90;;;;;;5129064;28;20233;-82
2023/10/30 01:50:01;;;;;;;9.33;9.03;;;12.30;99.90;;;;;;5127770;28;20243;-82
2023/10/30 01:52:30;;;;;;;9.57;9.27;;;12.30;99.90;;;;;;5126581;27;20233;-82
2023/10/30 01:55:02;;;;;;;9.30;9.00;;;12.40;99.90;;;;;;5125169;28;20224;-82
2023/10/30 01:57:30;;;;;;;9.60;9.30;;;12.40;99.90;;;;;;5125899;28;20229;-82
2023/10/30 01:59:58;;;;;;;9.40;9.10;;;12.40;99.90;;;;;;5125976;28;20262;-82
2023/10/30 02:02:30;;;;;;;9.20;8.90;;;12.40;99.90;;;;;;5124692;27;20217;-82
2023/10/30 02:04:58;;;;;;;8.93;8.63;;;12.40;99.90;;;;;;5125222;28;20213;-82
2023/10/30 02:07:26;;;;;;;9.30;9.00;;;12.40;99.90;;;;;;5125750;28;20243;-82
2023/10/30 02:09:55;;;;;;;9.10;8.80;;;12.40;99.90;;;;;;5125623;28;20233;-81
2023/10/30 02:12:28;;;;;;;9.23;8.93;;;12.40;99.90;;;;;;5125396;27;20225;-82
2023/10/30 02:14:56;;;;;;;9.20;8.90;;;12.40;99.90;;;;;;5125241;28;20363;-81
2023/10/30 02:17:24;;;;;;;9.30;9.00;;;12.40;99.90;;;;;;5125255;28;20233;-82
2023/10/30 02:20:04;;;;;;;9.20;8.90;;;12.40;99.90;;;;;;5125484;28;20249;-82
2023/10/30 02:22:32;;;;;;;9.40;9.10;;;12.40;99.90;;;;;;5124629;28;20301;-82
2023/10/30 02:25:11;;;;;;;9.20;8.90;;;12.40;99.90;;;;;;5125460;28;20221;-83
2023/10/30 02:27:42;;;;;;;9.50;9.20;;;12.40;99.90;;;;;;5126285;28;20228;-82
2023/10/30 02:30:12;;;;;;;9.23;8.93;;;12.40;99.90;;;;;;5125792;28;20225;-82
2023/10/30 02:32:42;;;;;;;9.10;8.80;;;12.40;99.90;;;;;;5125718;27;20232;-82
2023/10/30 02:37:56;;;;;;;9.07;8.77;;;12.50;99.90;;;;;;5124083;28;20224;-82
2023/10/30 02:40:24;;;;;;;9.27;8.97;;;12.40;99.90;;;;;;5130984;28;20236;-82
2023/10/30 02:42:57;;;;;;;9.30;9.00;;;12.40;99.90;;;;;;5130916;28;20235;-82
2023/10/30 02:45:24;;;;;;;9.23;8.93;;;12.40;99.90;;;;;;5127066;28;20221;-83
2023/10/30 02:48:02;;;;;;;9.10;8.80;;;12.40;99.90;;;;;;5126590;28;21072;-82
2023/10/30 02:50:31;;;;;;;9.50;9.20;;;12.30;99.90;;;;;;5131383;28;20240;-82
2023/10/30 02:53:12;;;;;;;8.90;8.60;;;12.30;99.90;;;;;;5123285;27;20247;-82
2023/10/30 02:55:39;;;;;;;9.23;8.93;;;12.30;99.90;;;;;;5124850;28;20248;-82
2023/10/30 03:00:57;;;;;;;8.90;8.60;;;12.30;99.90;;;;;;5125325;28;20280;-81
2023/10/30 03:03:36;;;;;;;9.00;8.70;;;12.30;99.90;;;;;;5124344;28;20232;-82
2023/10/30 03:06:08;;;;;;;9.00;8.70;;;12.30;99.90;;;;;;5124792;28;20248;-82
2023/10/30 03:08:35;;;;;;;9.10;8.80;;;12.20;99.90;;;;;;5125029;28;20229;-82
2023/10/30 03:11:03;;;;;;;9.13;8.83;;;12.20;99.90;;;;;;5123708;27;20251;-84
2023/10/30 03:13:38;;;;;;;9.13;8.83;;;12.20;99.90;;;;;;5124324;28;20245;-82
2023/10/30 03:16:11;;;;;;;9.23;8.93;;;12.20;99.90;;;;;;5133344;27;20232;-82
2023/10/30 03:18:40;;;;;;;9.50;9.20;;;12.10;99.90;;;;;;5124346;28;20285;-82
2023/10/30 03:21:19;;;;;;;9.40;9.10;;;12.00;99.90;;;;;;5124129;27;20236;-82
2023/10/30 03:23:57;;;;;;;9.30;9.00;;;12.00;99.90;;;;;;5130343;28;20217;-82
2023/10/30 03:26:26;;;;;;;9.47;9.17;;;12.00;99.90;;;;;;5138782;28;20223;-81
2023/10/30 03:31:42;;;;;;;9.20;8.90;;;11.90;99.90;;;;;;5125742;28;20267;-82
2023/10/30 03:34:22;;;;;;;9.23;8.93;;;11.90;99.90;;;;;;5122644;28;20233;-82
2023/10/30 03:36:50;;;;;;;9.40;9.10;;;11.90;99.90;;;;;;5121837;28;20270;-82
2023/10/30 03:39:30;;;;;;;9.30;9.00;;;11.80;99.90;;;;;;5114620;28;20260;-83
2023/10/30 03:41:58;;;;;;;9.40;9.10;;;11.80;99.90;;;;;;5121025;27;20278;-82
2023/10/30 03:47:23;;;;;;;9.30;9.00;;;11.80;99.90;;;;;;5104555;28;20241;-81
2023/10/30 03:50:02;;;;;;;9.60;9.30;;;11.60;99.90;;;;;;5116472;28;20307;-82
2023/10/30 03:52:31;;;;;;;9.50;9.20;;;11.60;99.90;;;;;;5113812;28;20244;-82
2023/10/30 03:55:03;;;;;;;9.30;9.00;;;11.50;99.90;;;;;;5107533;28;20267;-82
2023/10/30 03:57:30;;;;;;;9.20;8.90;;;11.50;99.90;;;;;;5108072;28;20262;-82
2023/10/30 04:00:01;;;;;;;9.57;9.27;;;11.50;99.90;;;;;;5108535;28;20369;-82
2023/10/30 04:02:29;;;;;;;9.53;9.23;;;11.40;99.90;;;;;;5107478;28;20312;-82
2023/10/30 04:04:59;;;;;;;9.20;8.90;;;11.40;99.90;;;;;;5113582;27;20260;-82
2023/10/30 04:07:29;;;;;;;9.20;8.90;;;11.30;99.90;;;;;;5109845;28;20295;-82
2023/10/30 04:09:57;;;;;;;9.30;9.00;;;11.30;99.90;;;;;;5108738;28;20229;-82
2023/10/30 04:12:36;;;;;;;9.30;9.00;;;11.30;99.90;;;;;;5108783;28;20256;-82
2023/10/30 04:18:01;;;;;;;9.30;9.00;;;11.30;99.90;;;;;;5107818;28;20305;-82
2023/10/30 04:20:30;;;;;;;9.20;8.90;;;11.30;99.90;;;;;;5108759;28;20240;-82
2023/10/30 04:25:38;;;;;;;9.20;8.90;;;11.30;99.90;;;;;;5114601;28;20227;-82
2023/10/30 04:28:17;;;;;;;9.10;8.80;;;11.30;99.90;;;;;;5115885;28;20225;-82
2023/10/30 04:33:32;;;;;;;9.10;8.80;;;11.30;99.90;;;;;;5162473;22;20308;-81
2023/10/30 04:36:02;;;;;;;8.50;8.30;;;11.30;99.90;;;;;;5140194;28;20220;-82
2023/10/30 04:38:31;;;;;;;8.63;8.43;;;11.30;99.90;;;;;;5140807;28;20327;-82
2023/10/30 04:43:58;;;;;;;9.10;8.80;;;11.30;99.90;;;;;;5118430;28;20252;-82
2023/10/30 04:46:28;;;;;;;9.20;8.90;;;11.20;99.90;;;;;;5118297;28;20315;-82
2023/10/30 04:48:55;;;;;;;9.23;8.93;;;11.20;99.90;;;;;;5111602;28;20214;-82
2023/10/30 04:51:22;;;;;;;9.23;8.93;;;11.20;99.90;;;;;;5132871;22;20332;-82
2023/10/30 04:53:50;;;;;;;9.37;9.07;;;11.10;99.90;;;;;;5123429;27;20262;-80
2023/10/30 04:56:17;;;;;;;9.20;8.90;;;11.10;99.90;;;;;;5118460;27;20233;-80
2023/10/30 04:58:44;;;;;;;8.90;8.60;;;11.10;99.90;;;;;;5123783;28;20301;-80
2023/10/30 05:01:12;;;;;;;8.97;8.67;;;11.00;99.90;;;;;;5127487;27;20267;-80
2023/10/30 05:03:41;;;;;;;8.90;8.60;;;11.00;99.90;;;;;;5127570;28;20259;-80
2023/10/30 05:06:08;;;;;;;8.63;8.43;;;10.90;99.90;;;;;;5127298;28;20242;-80
2023/10/30 05:08:37;;;;;;;8.77;8.57;;;10.90;99.90;;;;;;5128967;28;20225;-80
2023/10/30 05:11:04;;;;;;;8.70;8.50;;;10.90;99.90;;;;;;5128753;28;20236;-80
2023/10/30 05:13:32;;;;;;;8.90;8.60;;;10.80;99.90;;;;;;5124610;28;20297;-80
2023/10/30 05:15:59;;;;;;;9.00;8.70;;;10.80;99.90;;;;;;5127568;28;20251;-80
2023/10/30 05:18:30;;;;;;;9.10;8.80;;;10.70;99.90;;;;;;5129148;28;20216;-80
2023/10/30 05:20:58;;;;;;;8.97;8.67;;;10.70;99.90;;;;;;5128495;27;20232;-80
2023/10/30 05:23:25;;;;;;;9.10;8.80;;;10.60;99.90;;;;;;5127182;28;20745;-80
2023/10/30 05:25:53;;;;;;;8.90;8.60;;;10.60;99.90;;;;;;5128620;27;20285;-80
2023/10/30 05:28:20;;;;;;;8.60;8.40;;;10.60;99.90;;;;;;5127140;28;20228;-81
2023/10/30 05:30:48;;;;;;;8.50;8.30;;;10.60;99.90;;;;;;5129368;28;20233;-80
2023/10/30 05:33:15;;;;;;;8.47;8.27;;;10.60;99.90;;;;;;5129186;28;20302;-80
2023/10/30 05:35:42;;;;;;;8.40;8.20;;;10.60;99.90;;;;;;5127877;28;20252;-79
2023/10/30 05:38:11;;;;;;;8.47;8.27;;;10.50;99.90;;;;;;5128276;28;20241;-80
2023/10/30 05:40:38;;;;;;;8.60;8.40;;;10.50;99.90;;;;;;5129268;28;20282;-80
2023/10/30 05:43:05;;;;;;;8.50;8.30;;;10.50;99.90;;;;;;5130686;28;20237;-80
2023/10/30 05:45:32;;;;;;;8.50;8.30;;;10.40;99.90;;;;;;5139998;27;20245;-80
2023/10/30 05:47:59;;;;;;;8.80;8.60;;;10.40;99.90;;;;;;5132576;27;20219;-80
2023/10/30 05:50:26;;;;;;;9.10;8.80;;;10.40;99.90;;;;;;5131594;28;20255;-80
2023/10/30 05:52:54;;;;;;;9.20;8.90;;;10.30;99.90;;;;;;5131041;27;20237;-80
2023/10/30 05:55:22;;;;;;;9.00;8.70;;;10.30;99.90;;;;;;5136291;28;20213;-79
2023/10/30 05:57:50;;;;;;;8.57;8.37;;;10.30;99.90;;;;;;5136288;28;20232;-81
2023/10/30 06:00:17;;;;;;;8.67;8.47;;;10.20;99.90;;;;;;5133272;28;20229;-81
2023/10/30 06:02:45;;;;;;;8.80;8.60;;;10.20;99.90;;;;;;5132353;28;20702;-81
2023/10/30 06:05:14;;;;;;;8.40;8.20;;;10.20;99.90;;;;;;5132822;28;20279;-81
2023/10/30 06:07:42;;;;;;;8.60;8.40;;;10.20;99.90;;;;;;5140202;27;20223;-80
2023/10/30 06:10:10;;;;;;;8.70;8.50;;;10.20;99.90;;;;;;5140642;27;20217;-80
2023/10/30 06:12:39;;;;;;;8.60;8.40;;;10.10;99.90;;;;;;5140508;27;20221;-80
2023/10/30 06:15:12;;;;;;;9.00;8.70;;;10.10;99.90;;;;;;5140753;27;20224;-83
2023/10/30 06:17:42;;;;;;;8.90;8.70;;;10.10;99.90;;;;;;5139940;27;20385;-83
2023/10/30 06:20:18;;;;;;;8.60;8.40;;;10.10;99.90;;;;;;5141606;27;20209;-85
2023/10/30 06:22:49;;;;;;;8.67;8.47;;;10.20;99.90;;;;;;5140818;27;20288;-84
2023/10/30 06:25:30;;;;;;;8.60;8.40;;;10.20;99.90;;;;;;5140630;27;20239;-85
2023/10/30 06:27:58;;;;;;;8.57;8.37;;;10.20;99.90;;;;;;5140731;27;20224;-83
2023/10/30 06:30:26;;;;;;;8.80;8.60;;;10.20;99.90;;;;;;5141021;27;20221;-82
2023/10/30 06:32:53;;;;;;;8.50;8.30;;;10.20;99.90;;;;;;5140629;27;20208;-81
2023/10/30 06:35:20;;;;;;;8.40;8.20;;;10.20;99.90;;;;;;5140241;27;20227;-82
2023/10/30 06:37:47;;;;;;;8.10;7.90;;;10.20;99.90;;;;;;5140455;27;20205;-82
2023/10/30 06:40:15;;;;;;;8.30;8.10;;;10.20;99.90;;;;;;5140744;27;20213;-82
2023/10/30 06:42:42;;;;;;;8.40;8.20;;;10.10;99.90;;;;;;5139597;27;20232;-82
2023/10/30 06:45:11;;;;;;;8.60;8.40;;;10.00;99.90;;;;;;5140039;27;20229;-82
2023/10/30 06:47:38;;;;;;;8.97;8.67;;;10.10;99.90;;;;;;5136858;27;20221;-82
2023/10/30 06:50:13;;;;;;;9.03;8.73;;;10.10;99.90;;;;;;5138176;27;20235;-82
2023/10/30 06:52:41;;;;;;;8.60;8.40;;;10.10;99.90;;;;;;5134163;28;20532;-83
2023/10/30 06:55:09;;;;;;;9.10;8.80;;;10.00;99.90;;;;;;5126071;28;20244;-83
2023/10/30 06:57:36;;;;;;;8.40;8.20;;;10.00;99.90;;;;;;5125824;28;20228;-82
2023/10/30 07:00:04;;;;;;;8.33;8.13;;;10.00;99.90;;;;;;5126577;28;20229;-82
2023/10/30 07:02:34;;;;;;;8.40;8.20;;;10.00;99.90;;;;;;5128345;28;20290;-82
2023/10/30 07:05:02;;;;;;;8.40;8.20;;;10.00;99.90;;;;;;5127523;28;20305;-82
2023/10/30 07:07:29;;;;;;;8.33;8.13;;;10.10;99.90;;;;;;5125657;28;20229;-83
2023/10/30 07:09:57;;;;;;;8.23;8.03;;;10.10;99.90;;;;;;5126040;28;20278;-83
2023/10/30 07:12:24;;;;;;;8.17;7.97;;;10.20;99.90;;;;;;5125703;28;20314;-82
2023/10/30 07:14:51;;;;;;;8.23;8.03;;;10.20;99.90;;;;;;5127378;28;20282;-83
2023/10/30 07:17:19;;;;;;;8.43;8.23;;;10.30;99.90;;;;;;5129499;28;20229;-83
2023/10/30 07:19:48;;;;;;;8.30;8.10;;;10.30;99.90;;;;;;5124056;28;20224;-82
2023/10/30 07:22:15;;;;;;;8.33;8.13;;;10.30;99.90;;;;;;5125198;27;20240;-81
2023/10/30 07:24:43;;;;;;;8.50;8.30;;;10.40;99.90;;;;;;5127420;28;20272;-81
2023/10/30 07:27:10;;;;;;;8.60;8.40;;;10.40;99.90;;;;;;5128853;28;20263;-80
2023/10/30 07:29:43;;;;;;;8.53;8.33;;;10.50;99.90;;;;;;5128908;28;20224;-85
2023/10/30 07:32:10;;;;;;;8.40;8.20;;;10.60;99.90;;;;;;5127960;28;20241;-85
2023/10/30 07:34:38;;;;;;;8.10;7.90;;;10.60;99.90;;;;;;5127240;28;20232;-84
2023/10/30 07:37:06;;;;;;;8.20;8.00;;;10.70;99.90;;;;;;5128405;28;20248;-85
2023/10/30 07:39:34;;;;;;;8.27;8.07;;;10.70;99.90;;;;;;5127943;28;20228;-84
2023/10/30 07:42:01;;;;;;;8.20;8.00;;;10.80;99.90;;;;;;5128275;28;20278;-85
2023/10/30 07:44:29;;;;;;;8.27;8.07;;;10.90;99.90;;;;;;5127701;28;20224;-84
2023/10/30 07:46:56;;;;;;;8.53;8.33;;;11.00;99.90;;;;;;5128565;28;20229;-85
2023/10/30 07:49:24;;;;;;;8.40;8.20;;;11.10;99.90;;;;;;5128555;28;20232;-84
2023/10/30 07:51:52;;;;;;;8.70;8.50;;;11.20;99.90;;;;;;5128637;27;20247;-84
2023/10/30 07:54:21;;;;;;;8.60;8.40;;;11.30;99.90;;;;;;5128233;28;20229;-85
2023/10/30 07:56:50;;;;;;;8.40;8.20;;;11.40;99.90;;;;;;5128814;28;20261;-84
2023/10/30 07:59:20;;;;;;;8.60;8.40;;;11.50;99.90;;;;;;5129195;28;20251;-85
2023/10/30 08:01:50;;;;;;;8.57;8.37;;;11.50;99.90;;;;;;5128115;28;20333;-85
2023/10/30 08:04:17;;;;;;;8.60;8.40;;;11.50;99.90;;;;;;5128740;28;20247;-84
2023/10/30 08:06:45;;;;;;;8.50;8.30;;;11.60;99.90;;;;;;5129051;28;20221;-84
2023/10/30 08:09:12;;;;;;;9.10;8.80;;;11.60;99.90;;;;;;5128228;28;20228;-85
2023/10/30 08:11:42;;;;;;;8.60;8.40;;;11.70;99.90;;;;;;5129423;28;20236;-84
2023/10/30 08:14:09;;;;;;;8.50;8.30;;;11.80;99.90;;;;;;5129091;27;20225;-87
2023/10/30 08:16:36;;;;;;;8.60;8.40;;;11.90;99.90;;;;;;5132295;28;20259;-85
2023/10/30 08:19:04;;;;;;;9.07;8.77;;;11.90;99.90;;;;;;5130652;28;20236;-86
2023/10/30 08:21:32;;;;;;;8.97;8.77;;;12.00;99.90;;;;;;5132339;28;20300;-86
2023/10/30 08:24:02;;;;;;;9.40;9.10;;;12.10;99.90;;;;;;5130527;28;20323;-86
2023/10/30 08:27:01;;;;;;;8.80;8.60;;;12.20;99.90;;;;;;5132754;27;20232;-86
2023/10/30 08:29:29;;;;;;;8.67;8.47;;;12.30;99.90;;;;;;5130240;27;20243;-83
2023/10/30 08:32:01;;;;;;;9.00;8.80;;;12.50;99.90;;;;;;5129748;28;20237;-85
2023/10/30 08:34:32;;;;;;;9.60;9.30;;;12.70;99.90;;;;;;5123123;28;20236;-85
2023/10/30 08:37:55;;;;;;;9.73;9.43;;;12.90;99.90;;;;;;5129921;28;20225;-86
2023/10/30 08:40:23;;;;;;;9.47;9.17;;;13.10;99.90;;;;;;5128349;27;20228;-83
2023/10/30 08:42:51;;;;;;;9.77;9.47;;;13.30;99.90;;;;;;5138244;27;20239;-83
2023/10/30 08:45:19;;;;;;;9.23;8.93;;;13.50;99.90;;;;;;5124039;28;20236;-83
2023/10/30 08:47:46;;;;;;;9.20;8.90;;;13.70;99.90;;;;;;5131077;28;20220;-82
2023/10/30 08:50:13;;;;;;;8.80;8.60;;;14.00;99.90;;;;;;5132552;28;20232;-84
2023/10/30 08:52:41;;;;;;;9.10;8.80;;;14.30;99.90;;;;;;5129690;28;20233;-84
2023/10/30 08:55:09;;;;;;;9.50;9.20;;;14.60;99.90;;;;;;5129887;28;20281;-82
2023/10/30 08:57:36;;;;;;;9.40;9.10;;;14.90;99.90;;;;;;5128882;28;20225;-84
2023/10/30 09:00:07;;;;;;;10.20;9.90;;;15.10;99.90;;;;;;5130739;28;20224;-84
2023/10/30 09:02:34;;;;;;;9.77;9.48;;;15.30;99.90;;;;;;5130781;28;20260;-83
2023/10/30 09:05:03;;;;;;;10.00;9.70;;;15.40;99.90;;;;;;5130504;28;20228;-83
2023/10/30 09:07:31;;;;;;;10.20;9.90;;;15.40;99.90;;;;;;5131321;28;20221;-83
2023/10/30 09:09:58;;;;;;;10.10;9.80;;;15.50;99.90;;;;;;5130798;28;20225;-84
2023/10/30 09:12:26;;;;;;;9.93;9.63;;;15.50;99.90;;;;;;5130920;28;20233;-84
2023/10/30 09:14:54;;;;;;;10.10;9.80;;;15.50;99.90;;;;;;5132127;27;20288;-83
2023/10/30 09:17:22;;;;;;;9.85;9.55;;;15.40;99.90;;;;;;5132063;28;20229;-82
2023/10/30 09:19:49;;;;;;;10.10;9.80;;;15.40;99.90;;;;;;5129099;28;20247;-83
2023/10/30 09:22:16;;;;;;;9.80;9.50;;;15.30;99.90;;;;;;5131071;28;20240;-81
2023/10/30 09:24:44;;;;;;;9.85;9.55;;;15.30;99.90;;;;;;5131808;28;20252;-82
2023/10/30 09:27:11;;;;;;;9.60;9.30;;;15.40;99.90;;;;;;5131085;28;20256;-83
2023/10/30 09:29:39;;;;;;;9.80;9.50;;;15.50;99.90;;;;;;5132391;27;20229;-84
2023/10/30 09:32:06;;;;;;;10.10;9.80;;;15.70;99.90;;;;;;5132208;28;20278;-84
2023/10/30 09:34:35;;;;;;;10.27;9.98;;;15.80;99.90;;;;;;5132134;27;20221;-82
2023/10/30 09:37:03;;;;;;;10.23;9.93;;;16.10;99.90;;;;;;5130234;28;20216;-82
2023/10/30 09:39:32;;;;;;;10.10;9.80;;;16.30;99.90;;;;;;5130339;28;20225;-81
2023/10/30 09:42:01;;;;;;;10.07;9.77;;;16.40;99.90;;;;;;5130157;28;20232;-82
2023/10/30 09:44:30;;;;;;;10.00;9.70;;;16.60;99.90;;;;;;5127590;28;20233;-82
2023/10/30 09:46:58;;;;;;;9.73;9.43;;;16.90;99.90;;;;;;5128073;28;20220;-83
2023/10/30 09:49:28;;;;;;;9.90;9.60;;;17.10;99.90;;;;;;5128800;27;20221;-83
2023/10/30 09:51:59;;;;;;;10.35;10.05;;;17.30;99.90;;;;;;5126590;28;20331;-82
2023/10/30 09:54:27;;;;;;;10.05;9.75;;;17.50;99.90;;;;;;5128137;28;20255;-83
2023/10/30 09:56:55;;;;;;;10.20;9.90;;;17.70;99.90;;;;;;5127840;28;20221;-84
2023/10/30 09:59:23;;;;;;;10.00;9.70;;;18.00;99.90;;;;;;5127819;28;20233;-81
2023/10/30 10:01:51;;;;;;;9.70;9.40;;;18.10;99.90;;;;;;5128464;28;20266;-84
2023/10/30 10:04:18;;;;;;;10.30;10.00;;;18.10;99.90;;;;;;5128362;28;20229;-83
2023/10/30 10:06:46;;;;;;;10.20;9.90;;;17.90;99.90;;;;;;5128863;28;20209;-83
2023/10/30 10:09:15;;;;;;;10.10;9.80;;;17.80;99.90;;;;;;5126801;28;20240;-82
2023/10/30 10:11:43;;;;;;;10.13;9.82;;;17.90;99.90;;;;;;5126828;27;20240;-83
2023/10/30 10:14:11;;;;;;;9.70;9.40;;;18.20;99.90;;;;;;5126671;28;20217;-80
2023/10/30 10:16:38;;;;;;;9.82;9.52;;;18.30;99.90;;;;;;5126410;28;20213;-82
2023/10/30 10:19:20;;;;;;;9.98;9.68;;;18.50;99.90;;;;;;5124626;28;20229;-83
2023/10/30 10:21:49;;;;;;;9.75;9.45;;;18.70;99.90;;;;;;5127325;28;20296;-84
2023/10/30 10:24:30;;;;;;;10.00;9.70;;;18.80;99.90;;;;;;5128225;28;20233;-85
2023/10/30 10:27:02;;;;;;;10.15;9.85;;;18.90;99.90;;;;;;5128896;28;20220;-84
2023/10/30 10:29:30;;;;;;;10.20;9.90;;;19.00;99.90;;;;;;5128776;28;20233;-85
2023/10/30 10:31:58;;;;;;;10.13;9.82;;;19.00;99.90;;;;;;5133744;28;20236;-85
2023/10/30 10:34:30;;;;;;;10.32;10.02;;;19.10;99.90;;;;;;5130270;28;20281;-85
2023/10/30 10:36:59;;;;;;;10.20;9.90;;;19.20;99.90;;;;;;5149339;27;20262;-86
2023/10/30 10:39:28;;;;;;;10.10;9.80;;;19.30;99.90;;;;;;5141794;27;20267;-85
2023/10/30 10:41:57;;;;;;;9.80;9.50;;;19.30;99.90;;;;;;5149548;27;20254;-87
2023/10/30 10:44:25;;;;;;;9.88;9.57;;;19.10;99.90;;;;;;5150715;27;20228;-87
2023/10/30 10:46:59;;;;;;;9.60;9.30;;;18.80;99.90;;;;;;5132616;27;20228;-86
2023/10/30 10:49:26;;;;;;;9.38;9.07;;;18.70;99.90;;;;;;5130822;28;20282;-86
2023/10/30 10:51:55;;;;;;;9.45;9.15;;;18.50;99.90;;;;;;5137536;27;20231;-86
2023/10/30 10:54:31;;;;;;;9.52;9.23;;;18.50;99.90;;;;;;5130752;27;20249;-85
2023/10/30 10:57:00;;;;;;;9.35;9.05;;;18.60;99.90;;;;;;5143234;27;20220;-86
2023/10/30 10:59:29;;;;;;;9.57;9.27;;;18.80;99.90;;;;;;5142613;27;20250;-85
2023/10/30 11:33:30;;;;;;;9.90;9.60;;;18.40;99.90;;;;;;5042629;28;20238;-88
2023/10/30 12:05:53;;;;;;;9.60;9.30;;;19.60;99.90;;;;;;5011440;28;20240;-88
2023/10/30 12:15:41;;;;;;;9.88;9.57;;;19.20;99.90;;;;;;4995453;28;20237;-88
2023/10/30 13:09:48;;;;;;;9.48;9.18;;;17.80;99.90;;;;;;4986077;28;20224;-87
2023/10/30 13:16:54;;;;;;;9.80;9.50;;;17.50;99.90;;;;;;5014041;28;20401;-89
2023/10/30 14:24:08;;;;;;;;;;;;;;;;;;;;;
2023/10/30 14:26:40;;;;;;;10.00;9.70;;;17.50;99.90;;;;;;5007388;28;20285;-86
2023/10/30 14:29:08;;;;;;;9.70;9.40;;;17.50;99.90;;;;;;5031381;28;20232;-86
2023/10/30 14:31:37;;;;;;;9.80;9.50;;;17.40;99.90;;;;;;5026566;28;20271;-85
2023/10/30 14:34:06;;;;;;;9.50;9.20;;;17.40;99.90;;;;;;5045173;28;20230;-85
2023/10/30 14:36:35;;;;;;;9.80;9.50;;;17.40;99.90;;;;;;5046883;28;20211;-85
2023/10/30 14:39:06;;;;;;;9.88;9.57;;;17.30;99.90;;;;;;5055629;28;20231;-85
2023/10/30 14:41:35;;;;;;;9.60;9.30;;;17.30;99.90;;;;;;5050367;28;20231;-85
2023/10/30 14:44:06;;;;;;;10.00;9.70;;;17.30;99.90;;;;;;5048529;28;20220;-85
2023/10/30 14:46:36;;;;;;;9.30;9.00;;;17.30;99.90;;;;;;5047986;28;20234;-84
2023/10/30 14:49:04;;;;;;;9.55;9.25;;;17.40;99.90;;;;;;5047763;28;20234;-85
2023/10/30 14:51:31;;;;;;;9.70;9.40;;;17.30;99.90;;;;;;5046957;28;20330;-84
2023/10/30 14:54:10;;;;;;;9.60;9.30;;;17.30;99.90;;;;;;5046313;28;20235;-85
2023/10/30 14:56:42;;;;;;;9.95;9.65;;;17.30;99.90;;;;;;5039459;28;20235;-85
2023/10/30 14:59:55;;;;;;;9.48;9.18;;;17.20;99.90;;;;;;5051185;28;20295;-88
2023/10/30 15:02:27;;;;;;;9.30;9.00;;;17.00;99.90;;;;;;5057699;28;20275;-89
2023/10/30 15:05:03;;;;;;;9.60;9.30;;;17.00;99.90;;;;;;5051060;28;20234;-88
2023/10/30 15:07:32;;;;;;;9.43;9.13;;;16.90;99.90;;;;;;5035438;28;20216;-88
2023/10/30 15:10:03;;;;;;;9.60;9.30;;;16.90;99.90;;;;;;5033337;28;20275;-85
2023/10/30 15:12:31;;;;;;;9.40;9.10;;;16.90;99.90;;;;;;5044490;28;20236;-84
2023/10/30 15:15:09;;;;;;;9.40;9.10;;;16.90;99.90;;;;;;5044157;28;20235;-85
2023/10/30 15:17:38;;;;;;;9.40;9.10;;;16.90;99.90;;;;;;5035611;28;20239;-85
2023/10/30 15:20:20;;;;;;;9.38;9.07;;;16.90;99.90;;;;;;5045499;28;20242;-85
2023/10/30 15:22:47;;;;;;;9.38;9.07;;;16.80;99.90;;;;;;5045665;28;20242;-85
2023/10/30 15:25:25;;;;;;;9.32;9.02;;;16.70;99.90;;;;;;5037921;28;20227;-83
2023/10/30 15:27:55;;;;;;;9.10;8.90;;;16.70;99.90;;;;;;5039924;28;20215;-86
2023/10/30 15:30:26;;;;;;;8.90;8.70;;;16.70;99.90;;;;;;5028862;28;20238;-87
2023/10/30 15:32:53;;;;;;;9.00;8.80;;;16.70;99.90;;;;;;5038551;28;20359;-85
2023/10/30 15:35:23;;;;;;;8.95;8.75;;;16.70;99.90;;;;;;5038534;28;20220;-86
2023/10/30 15:37:51;;;;;;;8.80;8.60;;;16.50;99.90;;;;;;5029145;28;20240;-85
2023/10/30 15:40:20;;;;;;;9.07;8.88;;;16.40;99.90;;;;;;5038710;28;20231;-85
2023/10/30 15:43:00;;;;;;;8.70;8.50;;;16.40;99.90;;;;;;5051606;28;20235;-86
2023/10/30 15:45:30;;;;;;;8.80;8.60;;;16.40;99.90;;;;;;5027560;28;20231;-86
2023/10/30 15:47:57;;;;;;;8.63;8.43;;;16.30;99.90;;;;;;5045068;28;20220;-85
2023/10/30 15:50:39;;;;;;;9.07;8.88;;;16.20;99.90;;;;;;5051475;28;20227;-86
2023/10/30 15:53:06;;;;;;;8.80;8.60;;;16.20;99.90;;;;;;5050226;28;20235;-86
2023/10/30 15:55:34;;;;;;;8.70;8.50;;;16.20;99.90;;;;;;5046251;28;20234;-85
2023/10/30 15:58:13;;;;;;;8.90;8.70;;;16.10;99.90;;;;;;5040656;28;20219;-86
2023/10/30 16:01:17;;;;;;;8.85;8.65;;;16.00;99.90;;;;;;5052128;28;20235;-84
2023/10/30 16:03:55;;;;;;;9.50;9.20;;;16.00;99.90;;;;;;5051684;28;20216;-85
2023/10/30 16:06:34;;;;;;;9.52;9.23;;;16.00;99.90;;;;;;5048151;28;20282;-86
2023/10/30 16:09:13;;;;;;;9.60;9.30;;;16.00;99.90;;;;;;5059811;28;20247;-86
2023/10/30 16:11:43;;;;;;;9.30;9.00;;;15.90;99.90;;;;;;5055637;28;20247;-86
2023/10/30 16:14:11;;;;;;;9.07;8.80;;;15.80;99.90;;;;;;5059235;28;20263;-84
2023/10/30 16:16:59;;;;;;;8.70;8.50;;;15.80;99.90;;;;;;5034450;28;20296;-85
2023/10/30 16:19:27;;;;;;;8.85;8.65;;;15.80;99.90;;;;;;5038133;28;20238;-85
2023/10/30 16:21:57;;;;;;;8.90;8.70;;;15.80;99.90;;;;;;5033223;28;20240;-85
2023/10/30 16:27:05;;;;;;;8.73;8.52;;;15.80;99.90;;;;;;5036168;28;20283;-85
2023/10/30 16:29:34;;;;;;;8.80;8.60;;;15.80;99.90;;;;;;5029407;28;20220;-83
2023/10/30 16:35:00;;;;;;;8.73;8.52;;;15.70;99.90;;;;;;5046570;28;20231;-83
2023/10/30 16:37:31;;;;;;;8.60;8.40;;;15.70;99.90;;;;;;5035296;28;20244;-83
2023/10/30 16:39:58;;;;;;;8.35;8.15;;;15.70;99.90;;;;;;5035106;28;20228;-84
2023/10/30 16:45:09;;;;;;;8.60;8.40;;;15.60;99.90;;;;;;5029924;28;20259;-85
2023/10/30 16:47:41;;;;;;;8.70;8.50;;;15.60;99.90;;;;;;5046553;28;20216;-83
2023/10/30 16:52:46;;;;;;;8.73;8.52;;;15.60;99.90;;;;;;5051329;22;20239;-85
2023/10/30 16:55:13;;;;;;;8.40;8.20;;;15.60;99.90;;;;;;5038584;28;20231;-84
2023/10/30 16:57:42;;;;;;;8.70;8.50;;;15.60;99.90;;;;;;5046504;28;20235;-84
2023/10/30 17:00:13;;;;;;;8.60;8.40;;;15.60;99.90;;;;;;5038312;28;20228;-85